createdAt,value
2022-11-01T00:01:15.655Z,17.50
2022-11-01T00:04:02.790Z,10.35
2022-11-01T00:06:50.386Z,14.27
2022-11-01T00:09:37.464Z,16.83
2022-11-01T00:12:24.565Z,11.55
2022-11-01T00:15:14.735Z,13.57
2022-11-01T00:18:02.262Z,12.45
2022-11-01T00:20:49.448Z,16.77
2022-11-01T00:23:37.232Z,15.30
2022-11-01T00:26:25.240Z,20.92
2022-11-01T00:29:12.794Z,15.23
2022-11-01T00:32:02.961Z,15.32
2022-11-01T00:34:50.395Z,11.90
2022-11-01T00:37:37.576Z,18.00
2022-11-01T00:40:24.702Z,22.48
2022-11-01T00:43:14.036Z,15.18
2022-11-01T00:46:01.465Z,14.45
2022-11-01T00:48:48.536Z,18.27
2022-11-01T00:51:35.666Z,19.67
2022-11-01T00:54:22.850Z,16.85
2022-11-01T00:57:12.174Z,14.77
2022-11-01T00:59:59.221Z,15.85
2022-11-01T01:02:46.306Z,17.48
2022-11-01T01:05:34.614Z,16.48
2022-11-01T01:08:22.996Z,15.93
2022-11-01T01:11:10.111Z,14.98
2022-11-01T01:13:57.298Z,17.85
2022-11-01T01:16:44.408Z,16.60
2022-11-01T01:19:32.248Z,25.27
2022-11-01T01:22:19.681Z,15.88
2022-11-01T01:25:09.385Z,12.88
2022-11-01T01:27:57.128Z,18.45
2022-11-01T01:30:44.212Z,14.85
2022-11-01T01:33:31.613Z,22.17
2022-11-01T01:36:21.008Z,18.25
2022-11-01T01:39:08.371Z,21.60
2022-11-01T01:41:58.358Z,22.55
2022-11-01T01:44:51.653Z,15.43
2022-11-01T01:47:40.478Z,15.23
2022-11-01T01:50:34.533Z,19.00
2022-11-01T01:53:36.937Z,13.35
2022-11-01T01:56:36.753Z,12.07
2022-11-01T01:59:23.908Z,15.07
2022-11-01T02:02:12.481Z,14.80
2022-11-01T02:05:08.973Z,18.23
2022-11-01T02:08:00.072Z,19.40
2022-11-01T02:10:50.024Z,17.80
2022-11-01T02:13:38.098Z,13.95
2022-11-01T02:16:40.477Z,19.10
2022-11-01T02:20:08.508Z,14.23
2022-11-01T02:23:16.704Z,14.27
2022-11-01T02:26:17.352Z,14.68
2022-11-01T02:29:13.193Z,13.18
2022-11-01T02:32:12.585Z,20.38
2022-11-01T02:35:22.823Z,16.98
2022-11-01T02:38:34.617Z,19.10
2022-11-01T02:41:40.962Z,14.30
2022-11-01T02:44:37.787Z,12.25
2022-11-01T02:47:28.187Z,15.63
2022-11-01T02:50:17.701Z,12.05
2022-11-01T02:53:05.377Z,11.52
2022-11-01T02:55:53.688Z,15.80
2022-11-01T02:58:43.585Z,18.85
2022-11-01T03:01:34.638Z,20.05
2022-11-01T03:04:24.417Z,17.23
2022-11-01T03:07:13.626Z,21.08
2022-11-01T03:10:02.030Z,17.25
2022-11-01T03:13:03.413Z,11.30
2022-11-01T03:16:00.575Z,15.30
2022-11-01T03:19:03.815Z,14.18
2022-11-01T03:22:31.376Z,12.88
2022-11-01T03:25:40.766Z,13.23
2022-11-01T03:28:37.899Z,9.27
2022-11-01T03:31:37.368Z,13.90
2022-11-01T03:34:26.259Z,16.65
2022-11-01T03:37:17.201Z,16.88
2022-11-01T03:40:06.295Z,14.60
2022-11-01T03:42:58.238Z,11.07
2022-11-01T03:45:47.940Z,21.15
2022-11-01T03:48:40.004Z,11.80
2022-11-01T03:51:27.114Z,15.90
2022-11-01T03:54:16.706Z,18.67
2022-11-01T03:57:03.889Z,10.13
2022-11-01T03:59:51.225Z,12.00
2022-11-01T04:02:40.645Z,13.93
2022-11-01T04:05:31.828Z,13.27
2022-11-01T04:08:18.941Z,10.85
2022-11-01T04:11:06.136Z,13.77
2022-11-01T04:14:13.206Z,13.05
2022-11-01T04:17:18.931Z,9.43
2022-11-01T04:20:24.852Z,11.82
2022-11-01T04:23:12.038Z,9.20
2022-11-01T04:25:59.158Z,11.20
2022-11-01T04:28:57.150Z,11.32
2022-11-01T04:31:44.627Z,12.48
2022-11-01T04:34:46.431Z,8.35
2022-11-01T04:37:33.581Z,10.73
2022-11-01T04:40:20.683Z,13.07
2022-11-01T04:43:07.838Z,12.93
2022-11-01T04:45:56.363Z,7.53
2022-11-01T04:48:43.467Z,6.13
2022-11-01T04:51:32.957Z,7.28
2022-11-01T04:54:24.757Z,9.50
2022-11-01T04:57:22.781Z,8.88
2022-11-01T05:00:14.259Z,12.38
2022-11-01T05:03:07.878Z,6.63
2022-11-01T05:06:00.861Z,7.45
2022-11-01T05:08:48.117Z,4.78
2022-11-01T05:11:35.236Z,5.95
2022-11-01T05:14:22.326Z,4.20
2022-11-01T05:17:09.455Z,3.97
2022-11-01T05:19:56.513Z,3.72
2022-11-01T05:22:43.508Z,3.17
2022-11-01T05:25:34.017Z,5.53
2022-11-01T05:28:24.267Z,3.40
2022-11-01T05:31:11.349Z,6.05
2022-11-01T05:33:58.407Z,4.10
2022-11-01T05:36:45.855Z,4.38
2022-11-01T05:39:33.257Z,5.05
2022-11-01T05:42:20.313Z,3.85
2022-11-01T05:45:07.703Z,3.35
2022-11-01T05:47:54.860Z,8.98
2022-11-01T05:50:44.006Z,7.07
2022-11-01T05:53:31.099Z,3.00
2022-11-01T05:56:18.946Z,6.95
2022-11-01T05:59:06.182Z,6.53
2022-11-01T06:01:58.283Z,4.28
2022-11-01T06:04:47.670Z,1.85
2022-11-01T06:07:36.651Z,3.60
2022-11-01T06:10:23.899Z,4.05
2022-11-01T06:13:11.207Z,4.32
2022-11-01T06:16:03.001Z,4.80
2022-11-01T06:18:50.412Z,2.93
2022-11-01T06:21:39.763Z,2.95
2022-11-01T06:24:26.802Z,3.90
2022-11-01T06:27:15.043Z,4.03
2022-11-01T06:30:04.536Z,5.43
2022-11-01T06:32:51.698Z,3.58
2022-11-01T06:35:41.261Z,2.25
2022-11-01T06:38:28.758Z,4.45
2022-11-01T06:41:18.073Z,2.53
2022-11-01T06:44:05.401Z,3.67
2022-11-01T06:46:54.203Z,3.38
2022-11-01T06:49:41.458Z,5.57
2022-11-01T06:52:28.498Z,10.73
2022-11-01T06:55:15.874Z,3.50
2022-11-01T06:58:03.965Z,3.55
2022-11-01T07:00:51.523Z,3.15
2022-11-01T07:03:38.839Z,2.40
2022-11-01T07:06:28.892Z,4.97
2022-11-01T07:09:20.725Z,2.60
2022-11-01T07:12:07.912Z,3.90
2022-11-01T07:14:55.015Z,2.20
2022-11-01T07:17:48.077Z,4.18
2022-11-01T07:20:41.684Z,3.75
2022-11-01T07:23:29.462Z,1.23
2022-11-01T07:26:21.384Z,1.67
2022-11-01T07:29:08.544Z,1.83
2022-11-01T07:31:55.644Z,1.88
2022-11-01T07:34:43.353Z,2.80
2022-11-01T07:37:30.721Z,1.85
2022-11-01T07:40:18.558Z,3.97
2022-11-01T07:43:06.431Z,2.75
2022-11-01T07:49:51.453Z,1.52
2022-11-01T08:21:06.019Z,4.00
2022-11-01T08:53:06.274Z,1.23
2022-11-01T09:00:52.750Z,1.05
2022-11-01T13:01:25.543Z,3.38
2022-11-01T13:13:10.869Z,5.22
2022-11-01T17:37:08.750Z,3.47
2022-11-01T17:39:56.255Z,5.10
2022-11-01T17:42:45.869Z,13.57
2022-11-01T17:45:49.631Z,3.97
2022-11-01T17:48:55.799Z,6.53
2022-11-01T17:51:47.539Z,7.30
2022-11-01T17:54:38.280Z,7.07
2022-11-01T17:57:29.159Z,4.88
2022-11-01T18:00:17.457Z,4.63
2022-11-01T18:03:15.380Z,4.85
2022-11-01T18:06:14.137Z,7.65
2022-11-01T18:09:01.568Z,6.18
2022-11-01T18:11:55.541Z,5.43
2022-11-01T18:15:03.107Z,8.63
2022-11-01T18:18:28.125Z,5.78
2022-11-01T18:21:52.812Z,7.72
2022-11-01T18:24:57.729Z,4.68
2022-11-01T18:27:45.345Z,5.93
2022-11-01T18:30:32.928Z,5.55
2022-11-01T18:33:30.868Z,8.55
2022-11-01T18:36:29.948Z,5.38
2022-11-01T18:39:29.257Z,5.95
2022-11-01T18:42:17.392Z,4.15
2022-11-01T18:45:51.185Z,6.28
2022-11-01T18:48:44.662Z,4.00
2022-11-01T18:51:34.147Z,8.85
2022-11-01T18:54:33.149Z,8.77
2022-11-01T18:57:24.883Z,6.82
2022-11-01T19:00:14.203Z,6.65
2022-11-01T19:03:02.908Z,8.35
2022-11-01T19:05:51.150Z,7.07
2022-11-01T19:08:39.346Z,5.00
2022-11-01T19:11:28.158Z,6.03
2022-11-01T19:14:21.985Z,10.82
2022-11-01T19:17:23.670Z,13.75
2022-11-01T19:20:29.182Z,7.13
2022-11-01T19:23:22.135Z,8.70
2022-11-01T19:26:39.231Z,7.32
2022-11-01T19:29:30.796Z,9.27
2022-11-01T19:32:22.234Z,7.05
2022-11-01T19:35:18.080Z,10.65
2022-11-01T19:38:16.481Z,6.78
2022-11-01T19:41:04.221Z,9.95
2022-11-01T19:43:52.103Z,9.60
2022-11-01T19:46:39.797Z,8.48
2022-11-01T19:49:30.541Z,6.72
2022-11-01T19:52:30.376Z,6.53
2022-11-01T19:55:36.861Z,12.40
2022-11-01T19:58:45.764Z,8.55
2022-11-01T20:01:47.130Z,4.72
2022-11-01T20:04:37.020Z,9.30
2022-11-01T20:07:28.293Z,8.65
2022-11-01T20:10:16.687Z,8.82
2022-11-01T20:13:04.337Z,10.93
2022-11-01T20:15:52.309Z,9.77
2022-11-01T20:18:44.620Z,8.57
2022-11-01T20:21:32.139Z,7.40
2022-11-01T20:24:19.618Z,9.93
2022-11-01T20:27:07.587Z,6.63
2022-11-01T20:29:57.771Z,5.45
2022-11-01T20:32:45.665Z,10.60
2022-11-01T20:35:33.248Z,12.35
2022-11-01T20:38:21.537Z,9.35
2022-11-01T20:41:13.330Z,8.10
2022-11-01T20:44:03.478Z,7.50
2022-11-01T20:46:51.348Z,12.85
2022-11-01T20:49:39.214Z,16.85
2022-11-01T20:52:44.670Z,10.82
2022-11-01T20:55:35.307Z,11.35
2022-11-01T20:58:22.990Z,9.00
2022-11-01T21:01:18.295Z,5.97
2022-11-01T21:04:13.595Z,14.85
2022-11-01T21:07:04.312Z,9.77
2022-11-01T21:09:57.299Z,7.15
2022-11-01T21:12:47.726Z,11.23
2022-11-01T21:15:39.579Z,9.55
2022-11-01T21:18:43.688Z,9.50
2022-11-01T21:21:47.053Z,12.55
2022-11-01T21:24:44.562Z,16.17
2022-11-01T21:27:34.034Z,11.73
2022-11-01T21:30:21.896Z,16.00
2022-11-01T21:33:38.666Z,16.77
2022-11-01T21:36:31.137Z,16.85
2022-11-01T21:39:34.266Z,11.30
2022-11-01T21:42:28.040Z,13.40
2022-11-01T21:45:34.623Z,15.02
2022-11-01T21:48:30.289Z,6.10
2022-11-01T21:51:17.890Z,8.18
2022-11-01T21:54:05.755Z,12.43
2022-11-01T21:56:53.038Z,6.20
2022-11-01T21:59:48.004Z,10.25
2022-11-01T22:02:35.562Z,8.27
2022-11-01T22:05:34.757Z,8.95
2022-11-01T22:08:24.598Z,7.75
2022-11-01T22:11:13.844Z,12.60
2022-11-01T22:14:01.140Z,11.50
2022-11-01T22:16:50.578Z,11.80
2022-11-01T22:19:37.861Z,7.22
2022-11-01T22:22:25.028Z,11.57
2022-11-01T22:25:12.445Z,13.50
2022-11-01T22:28:02.419Z,10.07
2022-11-01T22:30:50.454Z,11.27
2022-11-01T22:33:38.722Z,12.57
2022-11-01T22:36:29.276Z,18.50
2022-11-01T22:39:22.648Z,11.75
2022-11-01T22:42:18.146Z,10.82
2022-11-01T22:45:16.096Z,13.57
2022-11-01T22:48:15.342Z,14.77
2022-11-01T22:51:03.479Z,17.55
2022-11-01T22:53:54.430Z,10.55
2022-11-01T22:56:45.663Z,15.45
2022-11-01T22:59:35.733Z,14.93
2022-11-01T23:02:29.948Z,18.17
2022-11-01T23:05:25.610Z,10.98
2022-11-01T23:08:28.073Z,18.65
2022-11-01T23:11:42.820Z,10.60
2022-11-01T23:14:37.658Z,19.88
2022-11-01T23:17:47.921Z,13.15
2022-11-01T23:20:40.234Z,19.45
2022-11-01T23:23:27.924Z,14.00
2022-11-01T23:26:17.624Z,22.20
2022-11-01T23:29:04.968Z,15.70
2022-11-01T23:31:52.539Z,13.77
2022-11-01T23:34:40.355Z,12.90
2022-11-01T23:37:27.505Z,12.77
2022-11-01T23:40:21.980Z,16.08
2022-11-01T23:43:21.795Z,15.93
2022-11-01T23:46:12.309Z,15.23
2022-11-01T23:49:03.335Z,23.38
2022-11-01T23:51:54.124Z,16.42
2022-11-01T23:54:43.082Z,21.20
2022-11-01T23:57:30.815Z,16.70
